Time;durP1;ratioP1;P1;durP2;ratioP2;P2;SDS_P1;SDS_P2;PMS_P1;PMS_P2;Temp;Humidity;BMP_temperature;BMP_pressure;BME280_temperature;BME280_humidity;BME280_pressure;Samples;Min_cycle;Max_cycle;Signal;HPM_P1;HPM_P2
2021/11/15 00:00:53;;;;;;;13.73;3.85;;;;;;;5.74;100.00;102625.41;6298217;28;20051;-70
2021/11/15 00:03:55;;;;;;;14.30;3.60;;;;;;;5.71;100.00;102620.19;6297424;28;20102;-70
2021/11/15 00:06:58;;;;;;;13.95;4.38;;;;;;;5.73;100.00;102620.19;6316745;28;20051;-70
2021/11/15 00:09:59;;;;;;;16.73;3.95;;;;;;;5.71;100.00;102617.56;6308318;28;20076;-70
2021/11/15 00:13:02;;;;;;;15.05;4.95;;;;;;;5.68;100.00;102617.59;6297242;28;20059;-70
2021/11/15 00:16:03;;;;;;;14.20;3.67;;;;;;;5.71;100.00;102614.97;6296850;28;20048;-70
2021/11/15 00:19:05;;;;;;;11.23;3.78;;;;;;;5.70;100.00;102621.06;6297149;28;20483;-70
2021/11/15 00:22:08;;;;;;;13.57;3.15;;;;;;;5.69;100.00;102615.88;6295581;28;20059;-70
2021/11/15 00:25:11;;;;;;;10.07;2.95;;;;;;;5.71;100.00;102624.53;6296973;28;20052;-70
2021/11/15 00:28:14;;;;;;;10.88;3.40;;;;;;;5.72;100.00;102621.94;6296649;28;20045;-70
2021/11/15 00:31:15;;;;;;;13.35;5.45;;;;;;;5.74;100.00;102627.16;6303569;28;20047;-70
2021/11/15 00:34:16;;;;;;;11.20;4.30;;;;;;;5.73;100.00;102625.41;6320180;28;20048;-70
2021/11/15 00:37:18;;;;;;;12.23;4.18;;;;;;;5.71;100.00;102621.94;6321731;28;20069;-70
2021/11/15 00:40:20;;;;;;;17.35;4.22;;;;;;;5.70;100.00;102615.84;6321173;28;20039;-70
2021/11/15 00:43:23;;;;;;;11.43;4.07;;;;;;;5.62;100.00;102619.34;6321490;28;20044;-70
2021/11/15 00:46:25;;;;;;;15.00;4.50;;;;;;;5.64;100.00;102628.06;6321629;28;20052;-70
2021/11/15 00:49:26;;;;;;;16.33;3.95;;;;;;;5.64;100.00;102634.13;6321271;28;20052;-70
2021/11/15 00:52:28;;;;;;;17.92;4.80;;;;;;;5.65;100.00;102635.00;6321356;28;20048;-69
2021/11/15 00:55:31;;;;;;;13.85;3.45;;;;;;;5.64;100.00;102628.91;6321473;28;20048;-70
2021/11/15 00:58:34;;;;;;;9.88;4.68;;;;;;;5.63;100.00;102628.91;6321340;28;20502;-70
2021/11/15 01:01:35;;;;;;;11.02;4.40;;;;;;;5.52;100.00;102629.78;6319321;28;20040;-70
2021/11/15 01:04:37;;;;;;;13.43;5.55;;;;;;;5.57;100.00;102637.63;6321536;28;20055;-70
2021/11/15 01:07:39;;;;;;;19.02;4.38;;;;;;;5.52;100.00;102632.41;6321398;28;20517;-70
2021/11/15 01:10:41;;;;;;;8.00;3.58;;;;;;;5.57;100.00;102628.03;6321205;28;20518;-70
2021/11/15 01:13:44;;;;;;;16.52;3.92;;;;;;;5.60;100.00;102627.19;6321462;28;20047;-70
2021/11/15 01:16:46;;;;;;;18.08;4.40;;;;;;;5.59;100.00;102622.84;6320879;28;20048;-70
2021/11/15 01:19:47;;;;;;;20.35;6.82;;;;;;;5.59;100.00;102620.25;6321047;28;20741;-70
2021/11/15 01:22:49;;;;;;;11.05;4.03;;;;;;;5.57;100.00;102622.81;6320986;28;20392;-70
2021/11/15 01:25:50;;;;;;;17.85;5.32;;;;;;;5.55;100.00;102619.38;6321196;28;20052;-70
2021/11/15 01:28:53;;;;;;;11.52;3.65;;;;;;;5.54;100.00;102615.03;6320952;28;20414;-70
2021/11/15 01:31:56;;;;;;;11.93;4.38;;;;;;;5.53;100.00;102610.66;6319034;28;20051;-71
2021/11/15 01:34:58;;;;;;;11.38;4.70;;;;;;;5.50;100.00;102607.22;6300756;28;20145;-70
2021/11/15 01:37:59;;;;;;;15.98;4.45;;;;;;;5.51;100.00;102601.13;6300753;28;20045;-71
2021/11/15 01:41:02;;;;;;;14.38;4.43;;;;;;;5.53;100.00;102601.97;6305817;28;20055;-70
2021/11/15 01:44:05;;;;;;;22.23;4.90;;;;;;;5.52;100.00;102587.22;6325630;28;20127;-71
2021/11/15 01:47:07;;;;;;;17.10;4.13;;;;;;;5.52;100.00;102590.69;6310543;28;20416;-70
2021/11/15 01:50:11;;;;;;;14.45;4.15;;;;;;;5.51;100.00;102590.69;6300319;28;20049;-71
2021/11/15 01:53:13;;;;;;;12.40;4.00;;;;;;;5.48;100.00;102583.75;6312614;28;20059;-71
2021/11/15 01:56:14;;;;;;;14.80;3.88;;;;;;;5.50;100.00;102595.06;6309313;28;20044;-70
2021/11/15 01:59:17;;;;;;;14.43;4.05;;;;;;;5.51;100.00;102585.47;6300128;28;20052;-71
2021/11/15 02:02:25;;;;;;;8.77;3.22;;;;;;;5.52;100.00;102592.44;6311353;28;20051;-70
2021/11/15 02:05:27;;;;;;;11.77;4.45;;;;;;;5.54;100.00;102586.34;6317714;28;20044;-70
2021/11/15 02:08:29;;;;;;;11.15;2.95;;;;;;;5.54;100.00;102583.75;6315452;28;20044;-70
2021/11/15 02:11:30;;;;;;;18.23;2.90;;;;;;;5.51;100.00;102585.47;6299832;28;20059;-70
2021/11/15 02:14:33;;;;;;;12.90;3.92;;;;;;;5.59;100.00;102583.72;6299855;28;20070;-70
2021/11/15 02:17:34;;;;;;;12.45;3.90;;;;;;;5.50;100.00;102581.16;6299843;28;20067;-70
2021/11/15 02:20:47;;;;;;;11.88;5.05;;;;;;;5.53;100.00;102578.50;6299455;28;20056;-70
2021/11/15 02:23:48;;;;;;;20.23;3.92;;;;;;;5.45;100.00;102570.72;6300099;28;20048;-70
2021/11/15 02:26:49;;;;;;;23.17;5.25;;;;;;;5.45;100.00;102570.72;6299456;28;20166;-70
2021/11/15 02:29:51;;;;;;;20.77;6.35;;;;;;;5.47;100.00;102571.59;6299726;28;20052;-70
2021/11/15 02:32:53;;;;;;;22.20;6.47;;;;;;;5.44;100.00;102565.50;6301943;28;20048;-70
2021/11/15 02:35:56;;;;;;;24.13;7.50;;;;;;;5.44;100.00;102574.19;6324102;28;20438;-71
2021/11/15 02:38:58;;;;;;;26.10;5.72;;;;;;;5.49;100.00;102569.81;6324746;28;20051;-70
2021/11/15 02:42:00;;;;;;;26.70;7.25;;;;;;;5.42;100.00;102565.50;6324050;28;20608;-71
2021/11/15 02:45:01;;;;;;;31.75;7.47;;;;;;;5.44;100.00;102565.50;6323500;28;20057;-70
2021/11/15 02:48:03;;;;;;;36.17;9.15;;;;;;;5.48;100.00;102565.47;6324269;28;20126;-70
2021/11/15 02:51:06;;;;;;;21.13;7.15;;;;;;;5.47;100.00;102555.06;6324172;28;20048;-70
2021/11/15 02:54:07;;;;;;;33.03;8.13;;;;;;;5.46;100.00;102562.03;6324102;28;20051;-71
2021/11/15 02:57:14;;;;;;;29.20;7.93;;;;;;;5.51;100.00;102562.88;6324115;28;20643;-70
2021/11/15 03:00:21;;;;;;;22.55;9.07;;;;;;;5.51;100.00;102564.63;6323784;28;20052;-70
2021/11/15 03:03:24;;;;;;;29.48;7.60;;;;;;;5.50;100.00;102574.19;6321950;28;20076;-70
2021/11/15 03:06:27;;;;;;;23.80;8.38;;;;;;;5.53;100.00;102571.56;6323852;28;20047;-71
2021/11/15 03:09:28;;;;;;;26.02;8.65;;;;;;;5.52;100.00;102582.00;6323895;28;20047;-71
2021/11/15 03:12:32;;;;;;;31.23;8.80;;;;;;;5.49;100.00;102579.38;6323162;28;20430;-71
2021/11/15 03:15:36;;;;;;;27.65;8.77;;;;;;;5.46;100.00;102575.06;6323689;28;20402;-71
2021/11/15 03:18:40;;;;;;;38.00;7.72;;;;;;;5.54;100.00;102575.03;6323359;28;20048;-70
2021/11/15 03:21:43;;;;;;;34.90;8.82;;;;;;;5.49;100.00;102569.81;6323277;28;20059;-70
2021/11/15 03:24:45;;;;;;;28.02;8.73;;;;;;;5.45;100.00;102572.44;6323298;28;20048;-71
2021/11/15 03:27:46;;;;;;;36.05;9.20;;;;;;;5.46;100.00;102575.06;6323182;28;20044;-70
2021/11/15 03:30:51;;;;;;;30.98;8.80;;;;;;;5.49;100.00;102572.44;6323186;28;20052;-71
2021/11/15 03:33:54;;;;;;;30.25;9.40;;;;;;;5.44;100.00;102568.97;6319733;28;20060;-71
2021/11/15 03:36:57;;;;;;;33.88;8.50;;;;;;;5.43;100.00;102561.16;6297753;28;20052;-70
2021/11/15 03:39:58;;;;;;;30.27;8.10;;;;;;;5.40;100.00;102554.19;6297367;28;20501;-71
2021/11/15 03:43:02;;;;;;;30.10;8.30;;;;;;;5.46;100.00;102555.94;6319626;28;20051;-70
2021/11/15 03:46:04;;;;;;;32.13;7.70;;;;;;;5.42;100.00;102552.47;6322386;28;20051;-70
2021/11/15 03:49:07;;;;;;;35.20;8.95;;;;;;;5.44;100.00;102552.47;6299749;28;20483;-71
2021/11/15 03:52:10;;;;;;;26.80;7.45;;;;;;;5.42;100.00;102562.91;6297232;28;20052;-70
2021/11/15 03:55:13;;;;;;;36.63;8.25;;;;;;;5.43;100.00;102556.81;6309255;28;20044;-70
2021/11/15 03:58:14;;;;;;;35.08;8.93;;;;;;;5.39;100.00;102560.31;6321577;28;20493;-70
2021/11/15 04:01:16;;;;;;;36.35;9.48;;;;;;;5.35;100.00;102564.66;6314624;28;20040;-70
2021/11/15 04:04:19;;;;;;;27.40;8.88;;;;;;;5.38;100.00;102563.78;6298474;28;20040;-70
2021/11/15 04:07:28;;;;;;;30.48;8.48;;;;;;;5.40;100.00;102561.16;6297075;28;20052;-70
2021/11/15 04:10:33;;;;;;;30.85;9.75;;;;;;;5.42;100.00;102560.31;6297024;28;20048;-70
2021/11/15 04:13:38;;;;;;;30.10;9.32;;;;;;;5.47;100.00;102562.91;6296968;28;20364;-70
2021/11/15 04:16:40;;;;;;;33.38;9.40;;;;;;;5.44;100.00;102557.69;6297045;28;20053;-70
2021/11/15 04:19:41;;;;;;;39.55;9.13;;;;;;;5.43;100.00;102563.78;6299131;28;20051;-70
2021/11/15 04:22:44;;;;;;;36.72;9.05;;;;;;;5.43;100.00;102555.94;6318787;28;20071;-70
2021/11/15 04:25:46;;;;;;;35.25;8.27;;;;;;;5.45;100.00;102547.25;6296661;28;20052;-70
2021/11/15 04:28:47;;;;;;;30.95;8.18;;;;;;;5.51;100.00;102552.44;6296938;28;20040;-70
2021/11/15 04:31:49;;;;;;;29.92;9.85;;;;;;;5.66;100.00;102559.34;6296451;28;20052;-71
2021/11/15 04:34:50;;;;;;;32.42;9.02;;;;;;;5.50;100.00;102562.91;6312106;28;20449;-70
2021/11/15 04:37:53;;;;;;;27.02;9.18;;;;;;;5.45;100.00;102555.09;6321489;28;20512;-70
2021/11/15 04:40:54;;;;;;;29.70;9.70;;;;;;;5.44;100.00;102566.38;6321663;28;20052;-70
2021/11/15 04:43:55;;;;;;;29.35;10.00;;;;;;;5.46;100.00;102564.63;6321570;28;20048;-70
2021/11/15 04:46:57;;;;;;;40.40;10.20;;;;;;;5.45;100.00;102559.41;6321400;28;20051;-70
2021/11/15 04:49:58;;;;;;;43.35;10.70;;;;;;;5.47;100.00;102561.16;6321585;28;20066;-71
2021/11/15 04:53:03;;;;;;;32.42;9.60;;;;;;;5.46;100.00;102561.16;6321489;28;20044;-70
2021/11/15 04:56:05;;;;;;;25.40;9.32;;;;;;;5.49;100.00;102558.53;6321686;28;20518;-70
2021/11/15 04:59:07;;;;;;;30.85;8.80;;;;;;;5.44;100.00;102553.31;6321181;28;20552;-70
2021/11/15 05:02:09;;;;;;;26.00;9.25;;;;;;;5.46;100.00;102551.59;6321385;28;20059;-71
2021/11/15 05:05:10;;;;;;;27.27;9.50;;;;;;;5.47;100.00;102560.28;6300876;28;20052;-70
2021/11/15 05:08:13;;;;;;;35.53;9.98;;;;;;;5.42;100.00;102556.81;6295856;28;20055;-70
2021/11/15 05:11:14;;;;;;;34.92;10.93;;;;;;;5.40;100.00;102558.56;6296206;28;20049;-70
2021/11/15 05:14:15;;;;;;;29.90;9.93;;;;;;;5.37;100.00;102554.25;6296377;28;20056;-71
2021/11/15 05:17:17;;;;;;;23.83;8.75;;;;;;;5.35;100.00;102549.00;6296232;28;20055;-70
2021/11/15 05:20:20;;;;;;;28.92;9.50;;;;;;;5.38;100.00;102550.75;6295751;28;20502;-70
2021/11/15 05:23:23;;;;;;;27.85;9.38;;;;;;;5.35;100.00;102551.63;6296257;28;20049;-70
2021/11/15 05:26:24;;;;;;;30.23;9.50;;;;;;;5.31;100.00;102555.13;6295726;28;20499;-70
2021/11/15 05:29:26;;;;;;;31.90;8.85;;;;;;;5.27;100.00;102553.41;6296123;28;20044;-71
2021/11/15 05:32:27;;;;;;;28.90;9.68;;;;;;;5.25;100.00;102552.50;6295944;28;20044;-71
2021/11/15 05:35:29;;;;;;;29.52;8.82;;;;;;;5.25;100.00;102557.72;6296470;28;20052;-71
2021/11/15 05:38:31;;;;;;;27.63;9.18;;;;;;;5.25;100.00;102555.13;6295700;28;20047;-70
2021/11/15 05:41:33;;;;;;;28.17;9.50;;;;;;;5.23;100.00;102556.88;6306787;28;20056;-71
2021/11/15 05:44:34;;;;;;;25.38;8.50;;;;;;;5.22;100.00;102552.53;6315821;28;20040;-71
2021/11/15 05:47:36;;;;;;;28.58;9.15;;;;;;;5.23;100.00;102548.19;6312116;28;20048;-70
2021/11/15 05:50:37;;;;;;;30.35;9.38;;;;;;;5.21;100.00;102544.69;6295631;28;20045;-70
2021/11/15 05:53:42;;;;;;;27.55;8.60;;;;;;;5.22;100.00;102551.66;6306911;28;20048;-70
2021/11/15 05:56:44;;;;;;;27.10;9.20;;;;;;;5.18;100.00;102547.31;6308237;28;20054;-70
2021/11/15 05:59:45;;;;;;;27.70;10.25;;;;;;;5.13;100.00;102557.75;6308337;28;20131;-70
2021/11/15 06:02:47;;;;;;;30.83;10.40;;;;;;;5.14;100.00;102563.84;6299748;28;20051;-69
2021/11/15 06:05:48;;;;;;;25.20;8.95;;;;;;;5.11;100.00;102558.63;6318420;28;20044;-70
2021/11/15 06:08:51;;;;;;;31.42;9.75;;;;;;;5.12;100.00;102570.78;6316470;28;20051;-70
2021/11/15 06:11:52;;;;;;;26.33;8.32;;;;;;;5.14;100.00;102566.44;6295224;28;20055;-70
2021/11/15 06:14:54;;;;;;;39.08;10.07;;;;;;;5.11;100.00;102566.44;6298268;28;20056;-70
2021/11/15 06:17:55;;;;;;;28.67;10.38;;;;;;;5.13;100.00;102565.56;6315290;28;20045;-70
2021/11/15 06:20:56;;;;;;;31.35;10.50;;;;;;;5.13;100.00;102572.50;6299212;28;20056;-70
2021/11/15 06:24:01;;;;;;;27.05;8.07;;;;;;;5.13;100.00;102575.97;6299820;28;20059;-70
2021/11/15 06:27:03;;;;;;;28.45;9.48;;;;;;;5.13;100.00;102575.97;6299408;28;20086;-69
2021/11/15 06:30:06;;;;;;;25.42;9.77;;;;;;;5.12;100.00;102573.38;6316843;28;20047;-70
2021/11/15 06:33:08;;;;;;;34.33;9.85;;;;;;;5.14;100.00;102574.28;6319863;28;20509;-70
2021/11/15 06:36:09;;;;;;;29.85;8.60;;;;;;;5.15;100.00;102578.59;6322048;28;20040;-70
2021/11/15 06:39:12;;;;;;;29.20;9.98;;;;;;;5.19;100.00;102585.56;6321005;28;20052;-70
2021/11/15 06:42:13;;;;;;;26.77;8.38;;;;;;;5.05;100.00;102581.22;6316262;28;20491;-70
2021/11/15 06:45:15;;;;;;;23.15;8.82;;;;;;;5.05;100.00;102585.56;6323246;28;20043;-69
2021/11/15 06:48:17;;;;;;;25.98;9.20;;;;;;;5.07;100.00;102586.41;6311410;28;20051;-70
2021/11/15 06:51:18;;;;;;;31.52;9.30;;;;;;;5.03;100.00;102595.09;6322742;28;20040;-70
2021/11/15 06:54:21;;;;;;;32.13;10.10;;;;;;;5.03;100.00;102593.38;6322003;28;20491;-70
2021/11/15 06:57:24;;;;;;;33.45;9.75;;;;;;;4.99;100.00;102585.56;6318215;28;20047;-69
2021/11/15 07:00:27;;;;;;;25.95;9.32;;;;;;;5.16;100.00;102594.22;6305452;28;20048;-69
2021/11/15 07:03:28;;;;;;;25.48;9.40;;;;;;;5.04;100.00;102595.13;6311045;28;20058;-69
2021/11/15 07:06:30;;;;;;;22.02;7.97;;;;;;;5.02;100.00;102595.97;6322260;28;20048;-70
2021/11/15 07:09:33;;;;;;;27.88;8.85;;;;;;;5.01;100.00;102607.28;6321936;28;20491;-70
2021/11/15 07:12:34;;;;;;;31.05;9.10;;;;;;;4.98;100.00;102607.28;6322066;28;20047;-70
2021/11/15 07:15:36;;;;;;;26.70;8.43;;;;;;;5.07;100.00;102599.44;6322655;28;20055;-69
2021/11/15 07:18:37;;;;;;;27.52;8.85;;;;;;;4.96;100.00;102603.81;6323393;28;20044;-69
2021/11/15 07:21:38;;;;;;;32.80;10.38;;;;;;;4.95;100.00;102609.88;6321675;28;20044;-70
2021/11/15 07:24:41;;;;;;;30.70;11.32;;;;;;;4.98;100.00;102607.28;6309594;28;20048;-70
2021/11/15 07:27:43;;;;;;;31.08;9.63;;;;;;;5.00;100.00;102601.22;6323602;28;20043;-69
2021/11/15 07:30:44;;;;;;;40.90;10.52;;;;;;;5.00;100.00;102598.59;6321691;28;21296;-70
2021/11/15 07:33:46;;;;;;;29.77;9.15;;;;;;;5.01;100.00;102605.53;6323006;28;20059;-69
2021/11/15 07:36:47;;;;;;;38.55;9.40;;;;;;;5.05;100.00;102609.03;6321751;28;20040;-70
2021/11/15 07:39:50;;;;;;;24.08;9.18;;;;;;;5.11;100.00;102605.53;6322736;28;20040;-70
2021/11/15 07:42:52;;;;;;;28.30;8.32;;;;;;;5.09;100.00;102606.41;6322879;28;20126;-69
2021/11/15 07:45:53;;;;;;;33.20;9.57;;;;;;;5.14;100.00;102606.41;6322106;28;20040;-69
2021/11/15 07:48:54;;;;;;;29.60;9.35;;;;;;;5.05;100.00;102612.50;6306736;28;20048;-70
2021/11/15 07:51:56;;;;;;;28.90;9.43;;;;;;;5.06;100.00;102613.34;6302979;28;20071;-70
2021/11/15 07:55:01;;;;;;;32.47;9.90;;;;;;;5.06;100.00;102613.34;6322612;28;20044;-70
2021/11/15 07:58:04;;;;;;;30.73;9.20;;;;;;;5.15;100.00;102612.47;6322400;28;20491;-69
2021/11/15 08:01:05;;;;;;;36.00;10.65;;;;;;;5.07;100.00;102612.47;6322422;28;20048;-70
2021/11/15 08:04:07;;;;;;;32.55;12.07;;;;;;;5.01;100.00;102613.34;6322427;28;20048;-69
2021/11/15 08:07:08;;;;;;;33.42;12.10;;;;;;;5.05;100.00;102607.28;6322463;28;20052;-70
2021/11/15 08:10:13;;;;;;;24.65;9.50;;;;;;;5.09;100.00;102608.16;6322024;28;20494;-70
2021/11/15 08:13:14;;;;;;;32.05;9.27;;;;;;;5.11;100.00;102600.31;6322356;28;20055;-69
2021/11/15 08:16:16;;;;;;;33.03;9.75;;;;;;;5.07;100.00;102600.31;6322164;28;20521;-70
2021/11/15 08:19:17;;;;;;;35.63;10.43;;;;;;;5.06;100.00;102602.94;6322129;28;20051;-69
2021/11/15 08:22:19;;;;;;;29.48;9.60;;;;;;;5.06;100.00;102598.59;6310601;28;20514;-68
2021/11/15 08:25:53;;;;;;;27.83;9.77;;;;;;;5.09;100.00;102608.16;6296685;28;20053;-70
2021/11/15 08:29:01;;;;;;;33.33;8.13;;;;;;;5.10;100.00;102602.06;6294240;28;20048;-70
2021/11/15 08:32:07;;;;;;;28.65;10.13;;;;;;;5.06;100.00;102601.19;6296794;28;20075;-69
2021/11/15 08:35:09;;;;;;;30.02;8.70;;;;;;;5.13;100.00;102595.97;6296644;28;20052;-70
2021/11/15 08:38:43;;;;;;;24.60;7.30;;;;;;;5.11;100.00;102587.28;6296553;28;20400;-70
2021/11/15 08:41:47;;;;;;;29.83;7.80;;;;;;;5.07;100.00;102595.09;6295670;28;20439;-70
2021/11/15 08:44:56;;;;;;;19.65;7.88;;;;;;;5.08;100.00;102586.41;6296718;28;20048;-69
2021/11/15 08:47:57;;;;;;;21.53;6.70;;;;;;;5.07;100.00;102589.88;6296709;28;20045;-69
2021/11/15 08:50:59;;;;;;;19.85;7.70;;;;;;;5.09;100.00;102588.16;6297400;28;20048;-69
2021/11/15 08:54:00;;;;;;;22.60;8.00;;;;;;;5.12;100.00;102578.59;6308046;28;20047;-69
2021/11/15 08:57:05;;;;;;;19.58;6.82;;;;;;;5.16;100.00;102586.41;6321656;28;20491;-70
2021/11/15 09:00:09;;;;;;;26.17;6.55;;;;;;;5.22;100.00;102596.84;6321248;28;20040;-71
2021/11/15 09:03:11;;;;;;;22.05;6.53;;;;;;;5.20;100.00;102587.28;6321238;28;20410;-71
2021/11/15 09:06:14;;;;;;;28.45;8.55;;;;;;;5.21;100.00;102595.09;6321158;28;20520;-70
2021/11/15 09:09:17;;;;;;;24.27;8.45;;;;;;;5.23;100.00;102602.94;6321399;28;20044;-69
2021/11/15 09:12:19;;;;;;;19.95;6.82;;;;;;;5.22;100.00;102595.94;6321016;28;20062;-70
2021/11/15 09:15:22;;;;;;;19.92;6.03;;;;;;;5.20;100.00;102595.09;6321341;28;20048;-71
2021/11/15 09:18:23;;;;;;;21.75;7.03;;;;;;;5.18;100.00;102589.00;6321369;28;20052;-70
2021/11/15 09:21:24;;;;;;;23.83;7.43;;;;;;;5.19;100.00;102589.03;6319246;28;20044;-70
2021/11/15 09:24:26;;;;;;;22.45;6.53;;;;;;;5.19;100.00;102589.03;6321520;28;20048;-70
2021/11/15 09:27:28;;;;;;;29.50;7.97;;;;;;;5.19;100.00;102578.59;6321211;28;20048;-71
2021/11/15 09:30:30;;;;;;;25.52;7.55;;;;;;;5.22;100.00;102578.59;6320824;28;20044;-70
2021/11/15 09:33:33;;;;;;;25.85;8.60;;;;;;;5.18;100.00;102587.28;6321613;28;20051;-70
2021/11/15 09:36:34;;;;;;;19.55;7.50;;;;;;;5.16;100.00;102581.19;6321492;28;20052;-70
2021/11/15 09:39:37;;;;;;;29.85;8.57;;;;;;;5.20;100.00;102585.53;6320940;28;20048;-70
2021/11/15 09:42:40;;;;;;;29.48;7.85;;;;;;;5.19;100.00;102591.63;6320844;28;20048;-71
2021/11/15 09:45:43;;;;;;;24.15;8.73;;;;;;;5.18;100.00;102582.09;6320693;28;20048;-71
2021/11/15 09:48:47;;;;;;;23.08;8.77;;;;;;;5.19;100.00;102588.16;6320907;28;20051;-71
2021/11/15 09:51:49;;;;;;;30.60;7.85;;;;;;;5.19;100.00;102596.84;6308209;28;20052;-71
2021/11/15 09:54:50;;;;;;;32.38;9.40;;;;;;;5.23;100.00;102589.91;6299748;28;20052;-71
2021/11/15 09:57:52;;;;;;;36.70;9.10;;;;;;;5.21;100.00;102604.66;6300526;28;20048;-72
2021/11/15 10:00:55;;;;;;;37.28;11.10;;;;;;;5.19;100.00;102602.06;6300043;28;20086;-71
2021/11/15 10:03:56;;;;;;;35.60;10.00;;;;;;;5.23;100.00;102603.78;6300258;28;20049;-71
2021/11/15 10:06:58;;;;;;;33.20;8.23;;;;;;;5.24;100.00;102602.06;6300114;28;20052;-72
2021/11/15 10:10:33;;;;;;;30.85;10.35;;;;;;;5.18;100.00;102597.72;6299925;28;20071;-72
2021/11/15 10:13:35;;;;;;;34.92;11.18;;;;;;;5.17;100.00;102582.06;6300279;28;20055;-71
2021/11/15 10:16:36;;;;;;;33.50;8.45;;;;;;;5.21;100.00;102579.44;6299887;28;20052;-70
2021/11/15 10:19:38;;;;;;;29.35;10.07;;;;;;;5.25;100.00;102575.09;6299878;28;20040;-71
2021/11/15 10:22:40;;;;;;;25.55;8.52;;;;;;;5.31;100.00;102573.38;6300695;28;20052;-71
2021/11/15 10:25:43;;;;;;;32.15;9.15;;;;;;;5.41;100.00;102579.44;6300012;28;20439;-71
2021/11/15 10:28:45;;;;;;;26.67;9.48;;;;;;;5.46;100.00;102585.50;6299896;28;20507;-71
2021/11/15 10:31:49;;;;;;;24.90;9.50;;;;;;;5.52;100.00;102576.78;6299514;28;20098;-71
2021/11/15 10:34:53;;;;;;;26.98;8.35;;;;;;;5.57;100.00;102572.41;6299604;28;20049;-71
2021/11/15 10:37:54;;;;;;;31.65;9.88;;;;;;;5.63;100.00;102572.38;6299397;28;20404;-71
2021/11/15 10:41:11;;;;;;;30.80;9.52;;;;;;;5.66;100.00;102566.31;6299367;28;20049;-71
2021/11/15 10:44:19;;;;;;;28.85;10.45;;;;;;;5.66;100.00;102559.34;6299070;28;20407;-71
2021/11/15 10:47:27;;;;;;;23.27;8.63;;;;;;;5.67;100.00;102558.47;6299078;28;20441;-71
2021/11/15 10:50:43;;;;;;;24.52;7.65;;;;;;;5.68;100.00;102557.63;6309125;28;20064;-69
2021/11/15 10:53:55;;;;;;;32.55;9.05;;;;;;;5.71;100.00;102557.59;6323939;28;20051;-71
2021/11/15 10:57:00;;;;;;;15.38;6.05;;;;;;;5.71;100.00;102554.09;6324194;28;20598;-71
2021/11/15 11:00:30;;;;;;;19.67;7.30;;;;;;;5.75;100.00;102548.00;6323452;28;20406;-70
2021/11/15 11:03:31;;;;;;;25.05;6.72;;;;;;;5.78;100.00;102537.56;6322784;28;20052;-70
2021/11/15 11:06:32;;;;;;;18.48;6.10;;;;;;;5.80;100.00;102535.81;6322860;28;20052;-70
2021/11/15 11:09:35;;;;;;;26.38;7.70;;;;;;;5.84;100.00;102538.41;6323900;28;20091;-71
2021/11/15 11:12:40;;;;;;;23.10;7.22;;;;;;;5.85;100.00;102536.66;6323731;28;20085;-71
2021/11/15 11:15:46;;;;;;;19.85;7.25;;;;;;;5.87;100.00;102536.66;6323514;28;20407;-70
2021/11/15 11:18:52;;;;;;;22.88;7.28;;;;;;;5.88;100.00;102541.00;6323810;28;20055;-70
2021/11/15 11:22:24;;;;;;;15.20;6.82;;;;;;;5.89;100.00;102540.97;6321581;28;20075;-71
2021/11/15 11:25:26;;;;;;;23.90;5.88;;;;;;;5.95;100.00;102537.50;6323593;28;20174;-70
2021/11/15 11:28:31;;;;;;;22.98;7.28;;;;;;;5.88;100.00;102541.88;6323459;28;20048;-70
2021/11/15 11:31:35;;;;;;;13.00;5.60;;;;;;;5.91;100.00;102543.59;6323024;28;20056;-70
2021/11/15 11:34:38;;;;;;;16.73;6.82;;;;;;;5.94;100.00;102534.03;6323350;28;20044;-70
2021/11/15 11:37:41;;;;;;;20.75;6.03;;;;;;;5.95;100.00;102529.66;6322946;28;20414;-70
2021/11/15 11:40:43;;;;;;;19.88;6.55;;;;;;;5.90;100.00;102529.66;6322922;28;20133;-70
2021/11/15 11:43:47;;;;;;;17.52;7.05;;;;;;;5.90;100.00;102527.06;6322991;28;20404;-70
2021/11/15 11:46:49;;;;;;;21.33;6.65;;;;;;;5.92;100.00;102524.50;6322983;28;20410;-70
2021/11/15 11:49:51;;;;;;;20.33;6.80;;;;;;;5.92;100.00;102514.91;6322055;28;20051;-70
2021/11/15 11:53:03;;;;;;;14.63;7.20;;;;;;;5.93;100.00;102503.59;6322492;28;20434;-70
2021/11/15 11:56:15;;;;;;;20.20;6.57;;;;;;;5.90;100.00;102505.31;6322618;28;20133;-70
2021/11/15 11:59:19;;;;;;;16.83;6.22;;;;;;;5.89;100.00;102501.84;6322784;28;20067;-70
2021/11/15 12:02:21;;;;;;;16.83;6.38;;;;;;;5.87;100.00;102501.00;6322138;28;20097;-70
2021/11/15 12:05:31;;;;;;;15.80;6.25;;;;;;;5.89;100.00;102504.44;6322612;28;20051;-70
2021/11/15 12:08:53;;;;;;;17.63;6.35;;;;;;;5.89;100.00;102501.84;6322256;28;20052;-69
2021/11/15 12:11:59;;;;;;;18.25;5.45;;;;;;;6.00;100.00;102505.31;6322252;28;20048;-70
2021/11/15 12:15:07;;;;;;;14.57;6.63;;;;;;;5.87;100.00;102501.00;6322511;28;20048;-70
2021/11/15 12:18:19;;;;;;;19.42;6.40;;;;;;;5.87;100.00;102498.38;6322232;28;20181;-70
2021/11/15 12:21:21;;;;;;;18.90;5.93;;;;;;;5.88;100.00;102500.13;6305653;28;20418;-69
2021/11/15 12:24:23;;;;;;;21.85;6.15;;;;;;;5.88;100.00;102497.50;6297161;28;20052;-70
2021/11/15 12:27:38;;;;;;;21.35;6.82;;;;;;;5.97;100.00;102501.84;6296681;28;20060;-70
2021/11/15 12:30:48;;;;;;;14.52;6.10;;;;;;;5.93;100.00;102494.91;6296490;28;20055;-70
2021/11/15 12:33:50;;;;;;;14.18;5.93;;;;;;;5.88;100.00;102492.28;6297023;28;20053;-68
2021/11/15 12:36:54;;;;;;;20.25;6.15;;;;;;;5.89;100.00;102486.19;6296696;28;20419;-70
2021/11/15 12:39:55;;;;;;;16.08;6.95;;;;;;;5.88;100.00;102484.47;6318590;28;20452;-70
2021/11/15 12:43:12;;;;;;;17.15;6.15;;;;;;;5.85;100.00;102479.25;6320083;28;20051;-70
2021/11/15 12:46:18;;;;;;;25.13;7.78;;;;;;;5.87;100.00;102474.91;6318406;28;20051;-70
2021/11/15 12:49:23;;;;;;;14.32;5.65;;;;;;;5.90;100.00;102467.03;6319966;28;20066;-70
2021/11/15 12:52:27;;;;;;;20.23;6.30;;;;;;;5.90;100.00;102468.78;6320952;28;20047;-69
2021/11/15 12:55:32;;;;;;;13.82;5.47;;;;;;;5.91;100.00;102468.78;6321693;28;20138;-70
2021/11/15 12:58:33;;;;;;;14.05;5.25;;;;;;;5.86;100.00;102475.78;6321527;28;20047;-69
2021/11/15 13:01:36;;;;;;;21.65;7.32;;;;;;;5.85;100.00;102476.66;6321053;28;20058;-69
2021/11/15 13:04:38;;;;;;;16.70;7.32;;;;;;;5.80;100.00;102476.66;6321798;28;20044;-70
2021/11/15 13:07:40;;;;;;;19.17;6.53;;;;;;;5.80;100.00;102460.16;6321235;28;20044;-70
2021/11/15 13:10:47;;;;;;;24.77;8.48;;;;;;;5.81;100.00;102462.78;6321027;28;20040;-70
2021/11/15 13:13:49;;;;;;;22.45;7.45;;;;;;;5.83;100.00;102466.22;6321483;28;20052;-69
2021/11/15 13:16:52;;;;;;;13.20;6.13;;;;;;;5.83;100.00;102463.63;6321239;28;20506;-70
2021/11/15 13:19:53;;;;;;;17.70;7.10;;;;;;;5.85;100.00;102458.38;6319213;28;20044;-70
2021/11/15 13:22:55;;;;;;;22.33;6.45;;;;;;;5.83;100.00;102455.78;6321013;28;20059;-68
2021/11/15 13:25:56;;;;;;;20.90;8.02;;;;;;;5.85;100.00;102454.03;6308290;28;20049;-70
2021/11/15 13:28:58;;;;;;;14.00;6.07;;;;;;;5.87;100.00;102446.22;6323106;28;20130;-69
2021/11/15 13:32:01;;;;;;;24.52;8.18;;;;;;;5.83;100.00;102445.34;6326032;28;20044;-69
2021/11/15 13:35:02;;;;;;;20.05;7.90;;;;;;;5.79;100.00;102448.00;6335979;22;20052;-72
2021/11/15 13:38:05;;;;;;;18.08;7.93;;;;;;;5.79;100.00;102448.00;6251243;28;20076;-72
2021/11/15 13:41:07;;;;;;;19.75;7.53;;;;;;;5.81;100.00;102449.72;6268246;28;20053;-72
2021/11/15 13:44:08;;;;;;;26.95;7.68;;;;;;;5.79;100.00;102451.47;6268699;28;20058;-73
2021/11/15 13:47:14;;;;;;;16.77;7.47;;;;;;;5.80;100.00;102444.50;6250924;28;20049;-73
2021/11/15 13:50:15;;;;;;;21.33;8.05;;;;;;;5.77;100.00;102442.78;6263765;28;20049;-72
2021/11/15 13:53:17;;;;;;;22.33;7.50;;;;;;;5.74;100.00;102436.72;6275536;28;20052;-72
2021/11/15 13:56:19;;;;;;;20.67;7.45;;;;;;;5.71;100.00;102445.41;6275461;28;20474;-72
2021/11/15 13:59:22;;;;;;;20.75;8.38;;;;;;;5.72;100.00;102447.19;6275315;28;20455;-72
2021/11/15 14:02:25;;;;;;;23.08;7.22;;;;;;;5.73;100.00;102440.22;6275134;28;20049;-72